Time;durP1;ratioP1;P1;durP2;ratioP2;P2;SDS_P1;SDS_P2;PMS_P1;PMS_P2;Temp;Humidity;BMP_temperature;BMP_pressure;BME280_temperature;BME280_humidity;BME280_pressure;Samples;Min_cycle;Max_cycle;Signal;HPM_P1;HPM_P2
2022/09/23 00:01:31;;;;;;;7.68;4.30;;;;;;;;;;5095159;28;20032;-79
2022/09/23 00:03:58;;;;;;;7.78;3.78;;;;;;;;;;5100824;28;20031;-79
2022/09/23 00:06:26;;;;;;;7.53;3.83;;;;;;;;;;5079224;28;20216;-79
2022/09/23 00:08:53;;;;;;;6.82;3.97;;;;;;;;;;5097603;28;20020;-79
2022/09/23 00:11:21;;;;;;;6.68;3.88;;;;;;;;;;5097261;28;20036;-79
2022/09/23 00:13:48;;;;;;;7.95;4.03;;;;;;;;;;5099951;28;20030;-80
2022/09/23 00:16:16;;;;;;;7.20;4.22;;;;;;;;;;5077666;28;20032;-79
2022/09/23 00:18:42;;;;;;;6.80;3.88;;;;;;;;;;5096970;28;20028;-79
2022/09/23 00:21:10;;;;;;;7.82;4.60;;;;;;;;;;5098277;28;20127;-80
2022/09/23 00:23:36;;;;;;;6.88;4.03;;;;;;;;;;5099130;28;20024;-80
2022/09/23 00:26:03;;;;;;;6.63;3.92;;;;;;;;;;5098499;28;20028;-80
2022/09/23 00:28:29;;;;;;;6.63;4.30;;;;;;;;;;5100996;28;20031;-79
2022/09/23 00:30:55;;;;;;;6.88;3.92;;;;;;;;;;5099014;28;20032;-79
2022/09/23 00:33:21;;;;;;;6.55;3.65;;;;;;;;;;5100753;28;20514;-80
2022/09/23 00:35:48;;;;;;;6.82;4.05;;;;;;;;;;5103397;28;20016;-80
2022/09/23 00:38:14;;;;;;;7.72;3.97;;;;;;;;;;5111478;28;20024;-79
2022/09/23 00:40:44;;;;;;;6.95;3.90;;;;;;;;;;5110489;28;20110;-79
2022/09/23 00:43:14;;;;;;;6.95;4.28;;;;;;;;;;5110104;28;20028;-79
2022/09/23 00:45:41;;;;;;;8.27;4.22;;;;;;;;;;5109628;28;20031;-79
2022/09/23 00:48:10;;;;;;;7.10;4.50;;;;;;;;;;5110632;28;20050;-79
2022/09/23 00:50:39;;;;;;;7.20;3.88;;;;;;;;;;5088682;28;20024;-79
2022/09/23 00:53:07;;;;;;;7.30;3.78;;;;;;;;;;5091780;28;20033;-79
2022/09/23 00:55:36;;;;;;;6.68;4.13;;;;;;;;;;5109307;28;20028;-79
2022/09/23 00:58:04;;;;;;;6.40;3.67;;;;;;;;;;5090383;28;20025;-79
2022/09/23 01:00:32;;;;;;;7.22;3.92;;;;;;;;;;5108675;28;20026;-79
2022/09/23 01:02:58;;;;;;;6.25;4.03;;;;;;;;;;5101409;28;20052;-79
2022/09/23 01:05:25;;;;;;;6.13;3.75;;;;;;;;;;5098840;28;20020;-80
2022/09/23 01:07:52;;;;;;;6.97;3.80;;;;;;;;;;5097277;28;20020;-79
2022/09/23 01:10:20;;;;;;;7.38;3.88;;;;;;;;;;5097910;28;20058;-79
2022/09/23 01:12:58;;;;;;;7.45;4.40;;;;;;;;;;5098382;28;20024;-80
2022/09/23 01:15:28;;;;;;;8.43;4.28;;;;;;;;;;5077567;28;20107;-79
2022/09/23 01:18:17;;;;;;;7.35;4.35;;;;;;;;;;5094594;28;20028;-79
2022/09/23 01:20:43;;;;;;;7.13;4.35;;;;;;;;;;5076429;28;20090;-79
2022/09/23 01:23:21;;;;;;;7.47;4.75;;;;;;;;;;5079585;28;20093;-79
2022/09/23 01:25:47;;;;;;;7.05;4.53;;;;;;;;;;5076637;28;20104;-80
2022/09/23 01:28:22;;;;;;;8.13;4.82;;;;;;;;;;5096115;28;20052;-79
2022/09/23 01:30:53;;;;;;;7.78;5.18;;;;;;;;;;5089823;28;20024;-79
2022/09/23 01:33:40;;;;;;;8.93;5.10;;;;;;;;;;5080610;28;20023;-79
2022/09/23 01:36:10;;;;;;;8.05;4.57;;;;;;;;;;5102397;28;20519;-79
2022/09/23 01:38:36;;;;;;;9.40;5.20;;;;;;;;;;5107568;28;20032;-79
2022/09/23 01:41:14;;;;;;;8.02;5.03;;;;;;;;;;5106122;28;20057;-80
2022/09/23 01:43:40;;;;;;;8.52;5.85;;;;;;;;;;5057951;28;20036;-79
2022/09/23 01:46:16;;;;;;;7.47;4.47;;;;;;;;;;5085196;28;20024;-80
2022/09/23 01:48:49;;;;;;;8.27;4.40;;;;;;;;;;5097936;28;20499;-80
2022/09/23 01:51:19;;;;;;;7.13;4.75;;;;;;;;;;5094840;28;20028;-79
2022/09/23 01:53:51;;;;;;;9.10;4.97;;;;;;;;;;5097470;28;20403;-79
2022/09/23 01:56:27;;;;;;;7.72;4.40;;;;;;;;;;5097654;28;20445;-79
2022/09/23 01:58:55;;;;;;;6.47;4.60;;;;;;;;;;5097833;28;20106;-80
2022/09/23 02:01:35;;;;;;;8.32;5.22;;;;;;;;;;5092833;28;20028;-79
2022/09/23 02:04:07;;;;;;;7.55;5.13;;;;;;;;;;5077461;28;20047;-79
2022/09/23 02:06:36;;;;;;;7.40;4.95;;;;;;;;;;5095466;28;20020;-80
2022/09/23 02:09:05;;;;;;;7.97;4.90;;;;;;;;;;5095123;28;20055;-79
2022/09/23 02:11:35;;;;;;;7.82;4.57;;;;;;;;;;5098407;28;20020;-79
2022/09/23 02:14:04;;;;;;;8.80;5.63;;;;;;;;;;5098352;28;20020;-79
2022/09/23 02:16:38;;;;;;;9.20;5.88;;;;;;;;;;5095918;28;20554;-79
2022/09/23 02:19:04;;;;;;;9.30;6.05;;;;;;;;;;5095449;28;20543;-80
2022/09/23 02:21:33;;;;;;;8.93;5.50;;;;;;;;;;5097363;28;20042;-80
2022/09/23 02:24:19;;;;;;;8.18;5.20;;;;;;;;;;5098788;28;20034;-80
2022/09/23 02:26:51;;;;;;;8.30;5.15;;;;;;;;;;5095977;28;20017;-80
2022/09/23 02:29:20;;;;;;;10.75;6.10;;;;;;;;;;5095966;28;20081;-79
2022/09/23 02:31:56;;;;;;;7.20;4.93;;;;;;;;;;5101927;28;20054;-79
2022/09/23 02:34:40;;;;;;;9.57;5.60;;;;;;;;;;5108441;28;20024;-79
2022/09/23 02:37:16;;;;;;;8.30;5.63;;;;;;;;;;5107786;28;20055;-79
2022/09/23 02:39:49;;;;;;;8.40;5.82;;;;;;;;;;5104111;28;20028;-79
2022/09/23 02:42:18;;;;;;;9.68;5.82;;;;;;;;;;5106112;28;20047;-79
2022/09/23 02:44:44;;;;;;;8.13;5.28;;;;;;;;;;5105079;28;20027;-79
2022/09/23 02:47:10;;;;;;;9.50;5.93;;;;;;;;;;5106527;28;20024;-79
2022/09/23 02:49:36;;;;;;;10.65;6.97;;;;;;;;;;5103863;28;20031;-79
2022/09/23 02:52:03;;;;;;;10.35;6.35;;;;;;;;;;5107475;28;20089;-79
2022/09/23 02:54:32;;;;;;;11.20;7.05;;;;;;;;;;5106018;28;20032;-79
2022/09/23 02:56:59;;;;;;;10.43;6.63;;;;;;;;;;5107311;28;20020;-79
2022/09/23 02:59:25;;;;;;;9.23;6.50;;;;;;;;;;5103716;28;20024;-79
2022/09/23 03:01:52;;;;;;;11.27;6.72;;;;;;;;;;5105779;28;20084;-79
2022/09/23 03:04:30;;;;;;;10.48;6.40;;;;;;;;;;5105223;28;20395;-79
2022/09/23 03:07:05;;;;;;;9.15;6.18;;;;;;;;;;5096053;28;20019;-79
2022/09/23 03:09:39;;;;;;;9.60;6.45;;;;;;;;;;5094821;28;20024;-79
2022/09/23 03:12:33;;;;;;;9.90;6.25;;;;;;;;;;5094593;28;20028;-79
2022/09/23 03:15:05;;;;;;;10.13;6.10;;;;;;;;;;5065420;28;20069;-79
2022/09/23 03:17:34;;;;;;;9.77;6.57;;;;;;;;;;5085535;28;20162;-79
2022/09/23 03:20:03;;;;;;;10.30;6.47;;;;;;;;;;5084180;28;20036;-79
2022/09/23 03:22:29;;;;;;;10.18;6.60;;;;;;;;;;5082251;28;20098;-79
2022/09/23 03:24:59;;;;;;;11.75;6.82;;;;;;;;;;5099378;28;20021;-79
2022/09/23 03:27:28;;;;;;;10.18;6.72;;;;;;;;;;5102585;28;20074;-78
2022/09/23 03:29:54;;;;;;;9.80;6.47;;;;;;;;;;5103411;28;20024;-78
2022/09/23 03:32:21;;;;;;;9.27;6.30;;;;;;;;;;5099140;28;20024;-78
2022/09/23 03:34:49;;;;;;;8.73;6.50;;;;;;;;;;5090731;28;20067;-78
2022/09/23 03:37:18;;;;;;;11.55;7.07;;;;;;;;;;5075065;28;20020;-78
2022/09/23 03:39:48;;;;;;;12.25;7.88;;;;;;;;;;5087022;28;20078;-78
2022/09/23 03:42:17;;;;;;;10.73;7.47;;;;;;;;;;5094564;28;20381;-78
2022/09/23 03:44:47;;;;;;;13.52;7.43;;;;;;;;;;5092037;28;20025;-78
2022/09/23 03:47:14;;;;;;;11.32;7.93;;;;;;;;;;5095243;28;20100;-78
2022/09/23 03:49:42;;;;;;;10.85;6.35;;;;;;;;;;5095602;28;20028;-79
2022/09/23 03:52:08;;;;;;;11.93;7.50;;;;;;;;;;5075650;28;20404;-79
2022/09/23 03:54:34;;;;;;;13.70;9.73;;;;;;;;;;5069659;28;20548;-80
2022/09/23 03:57:01;;;;;;;11.65;7.75;;;;;;;;;;5089698;28;20373;-79
2022/09/23 03:59:29;;;;;;;12.38;8.02;;;;;;;;;;5068298;28;20071;-79
2022/09/23 04:01:55;;;;;;;11.70;7.40;;;;;;;;;;5084341;28;20050;-79
2022/09/23 04:04:21;;;;;;;18.27;9.82;;;;;;;;;;5086031;28;20020;-79
2022/09/23 04:06:47;;;;;;;13.32;8.00;;;;;;;;;;5088434;28;20096;-79
2022/09/23 04:09:13;;;;;;;17.15;10.10;;;;;;;;;;5095201;28;20052;-79
2022/09/23 04:11:39;;;;;;;16.15;9.13;;;;;;;;;;5091254;28;20626;-79
2022/09/23 04:14:05;;;;;;;13.73;8.88;;;;;;;;;;5093209;28;20127;-79
2022/09/23 04:16:31;;;;;;;13.05;8.38;;;;;;;;;;5070566;28;20023;-78
2022/09/23 04:18:57;;;;;;;27.23;15.65;;;;;;;;;;5086597;28;20111;-78
2022/09/23 04:21:23;;;;;;;17.70;10.48;;;;;;;;;;5095330;28;20032;-79
2022/09/23 04:23:49;;;;;;;16.73;9.30;;;;;;;;;;5096538;28;20041;-78
2022/09/23 04:26:15;;;;;;;17.40;9.88;;;;;;;;;;5117406;28;20034;-78
2022/09/23 04:28:41;;;;;;;17.23;10.55;;;;;;;;;;5115448;28;20017;-78
2022/09/23 04:31:08;;;;;;;20.05;11.82;;;;;;;;;;5062944;28;20028;-79
2022/09/23 04:33:35;;;;;;;15.38;9.45;;;;;;;;;;5098712;28;20105;-79
2022/09/23 04:36:01;;;;;;;15.18;9.60;;;;;;;;;;5097915;28;20023;-79
2022/09/23 04:38:27;;;;;;;19.70;11.55;;;;;;;;;;5089218;28;20025;-78
2022/09/23 04:40:53;;;;;;;18.27;11.45;;;;;;;;;;5112487;28;20039;-79
2022/09/23 04:43:22;;;;;;;19.13;11.00;;;;;;;;;;5108648;28;20027;-79
2022/09/23 04:45:56;;;;;;;15.20;9.95;;;;;;;;;;5102205;28;20020;-79
2022/09/23 04:48:22;;;;;;;17.52;9.50;;;;;;;;;;5102568;28;20047;-79
2022/09/23 04:50:48;;;;;;;17.05;9.57;;;;;;;;;;5103900;28;20020;-79
2022/09/23 04:53:15;;;;;;;15.70;9.10;;;;;;;;;;5104936;28;20028;-79
2022/09/23 04:55:42;;;;;;;19.40;10.02;;;;;;;;;;5104790;28;20353;-79
2022/09/23 04:58:09;;;;;;;18.88;11.65;;;;;;;;;;5099232;28;20012;-79
2022/09/23 05:00:35;;;;;;;17.73;12.18;;;;;;;;;;5081459;28;20094;-79
2022/09/23 05:03:01;;;;;;;20.13;11.43;;;;;;;;;;5083960;28;20035;-79
2022/09/23 05:05:28;;;;;;;18.52;12.40;;;;;;;;;;5092911;28;20039;-80
2022/09/23 05:07:55;;;;;;;19.38;12.68;;;;;;;;;;5082900;28;20016;-79
2022/09/23 05:10:21;;;;;;;18.55;11.73;;;;;;;;;;5081639;28;20016;-79
2022/09/23 05:12:47;;;;;;;16.95;10.98;;;;;;;;;;5088753;28;20591;-79
2022/09/23 05:15:14;;;;;;;17.05;11.55;;;;;;;;;;5089245;28;20032;-79
2022/09/23 05:17:41;;;;;;;16.17;9.57;;;;;;;;;;5096589;28;20028;-80
2022/09/23 05:20:08;;;;;;;13.82;10.13;;;;;;;;;;5096255;28;20107;-80
2022/09/23 05:22:34;;;;;;;15.63;9.23;;;;;;;;;;5096054;28;20039;-80
2022/09/23 05:25:01;;;;;;;13.00;8.48;;;;;;;;;;5091637;28;20020;-80
2022/09/23 05:27:27;;;;;;;13.02;8.52;;;;;;;;;;5093541;28;20364;-79
2022/09/23 05:29:53;;;;;;;11.50;9.02;;;;;;;;;;5097731;28;20574;-79
2022/09/23 05:32:20;;;;;;;16.95;9.05;;;;;;;;;;5095133;28;20028;-79
2022/09/23 05:34:46;;;;;;;14.13;8.77;;;;;;;;;;5093992;28;20082;-80
2022/09/23 05:37:13;;;;;;;11.95;8.13;;;;;;;;;;5091828;28;20063;-79
2022/09/23 05:39:39;;;;;;;11.65;7.72;;;;;;;;;;5091181;28;20035;-79
2022/09/23 05:42:05;;;;;;;13.00;7.90;;;;;;;;;;5089229;28;20028;-79
2022/09/23 05:44:31;;;;;;;13.65;8.07;;;;;;;;;;5090031;28;20020;-79
2022/09/23 05:46:57;;;;;;;10.57;7.65;;;;;;;;;;5068877;28;20021;-79
2022/09/23 05:49:23;;;;;;;18.83;12.93;;;;;;;;;;5091396;28;20024;-77
2022/09/23 05:51:49;;;;;;;29.00;19.40;;;;;;;;;;5091434;28;20158;-80
2022/09/23 05:54:15;;;;;;;14.20;10.65;;;;;;;;;;5094463;28;20285;-78
2022/09/23 05:56:42;;;;;;;12.98;9.40;;;;;;;;;;5094446;28;20051;-78
2022/09/23 05:59:08;;;;;;;13.02;8.80;;;;;;;;;;5093179;28;20472;-79
2022/09/23 06:01:36;;;;;;;16.33;8.38;;;;;;;;;;5095431;28;20078;-81
2022/09/23 06:04:04;;;;;;;13.18;8.60;;;;;;;;;;5098071;28;20327;-78
2022/09/23 06:06:31;;;;;;;11.13;7.85;;;;;;;;;;5099309;28;20063;-80
2022/09/23 06:08:58;;;;;;;13.55;8.20;;;;;;;;;;5096760;28;20028;-80
2022/09/23 06:11:24;;;;;;;13.23;8.25;;;;;;;;;;5096469;28;20024;-81
2022/09/23 06:13:54;;;;;;;12.30;7.95;;;;;;;;;;5071039;28;20572;-78
2022/09/23 06:16:20;;;;;;;15.02;9.32;;;;;;;;;;5097077;28;20084;-78
2022/09/23 06:18:46;;;;;;;12.93;9.00;;;;;;;;;;5097816;28;20036;-79
2022/09/23 06:21:13;;;;;;;13.13;8.63;;;;;;;;;;5094194;28;20078;-79
2022/09/23 06:23:39;;;;;;;15.35;9.90;;;;;;;;;;5081513;28;20491;-78
2022/09/23 06:26:06;;;;;;;14.70;10.02;;;;;;;;;;5096087;28;20016;-78
2022/09/23 06:28:34;;;;;;;15.25;9.48;;;;;;;;;;5117327;28;20072;-79
2022/09/23 06:31:01;;;;;;;14.65;9.23;;;;;;;;;;5092444;28;20024;-79
2022/09/23 06:33:28;;;;;;;13.23;9.23;;;;;;;;;;5100485;28;20038;-79
2022/09/23 06:35:57;;;;;;;14.65;9.07;;;;;;;;;;5100780;28;20032;-79
2022/09/23 06:38:24;;;;;;;15.90;8.73;;;;;;;;;;5098078;28;20082;-79
2022/09/23 06:40:51;;;;;;;14.82;9.75;;;;;;;;;;5102673;28;20040;-78
2022/09/23 06:43:17;;;;;;;12.02;9.38;;;;;;;;;;5102423;28;20039;-79
2022/09/23 06:45:43;;;;;;;13.13;8.82;;;;;;;;;;5100409;28;20560;-80
2022/09/23 06:48:10;;;;;;;14.65;8.93;;;;;;;;;;5080220;28;20039;-79
2022/09/23 06:50:36;;;;;;;12.07;8.70;;;;;;;;;;5096153;28;20106;-78
2022/09/23 06:53:03;;;;;;;13.27;9.20;;;;;;;;;;5095958;28;20024;-79
2022/09/23 06:55:29;;;;;;;12.38;8.75;;;;;;;;;;5093461;28;20028;-79
2022/09/23 06:57:57;;;;;;;12.32;8.45;;;;;;;;;;5096223;28;20054;-79
2022/09/23 07:00:23;;;;;;;13.15;8.02;;;;;;;;;;5092986;28;20036;-81
2022/09/23 07:02:49;;;;;;;11.48;8.02;;;;;;;;;;5096644;28;20027;-81
2022/09/23 07:05:16;;;;;;;12.38;7.97;;;;;;;;;;5096965;28;20695;-80
2022/09/23 07:07:42;;;;;;;11.07;7.68;;;;;;;;;;5076628;28;20032;-82
2022/09/23 07:10:09;;;;;;;12.10;8.20;;;;;;;;;;5081064;28;20106;-82
2022/09/23 07:12:35;;;;;;;12.15;8.20;;;;;;;;;;5090598;28;20020;-81
2022/09/23 07:15:01;;;;;;;10.48;7.40;;;;;;;;;;5093117;28;20027;-81
2022/09/23 07:17:27;;;;;;;10.52;7.28;;;;;;;;;;5092004;28;20024;-80
2022/09/23 07:19:53;;;;;;;12.13;7.05;;;;;;;;;;5087630;28;20263;-80
2022/09/23 07:22:20;;;;;;;10.23;6.53;;;;;;;;;;5086383;28;20044;-81
2022/09/23 07:24:46;;;;;;;8.35;6.47;;;;;;;;;;5068873;28;20032;-81
2022/09/23 07:27:15;;;;;;;8.98;6.50;;;;;;;;;;5084932;28;20024;-82
2022/09/23 07:29:42;;;;;;;9.38;6.70;;;;;;;;;;5092891;28;20020;-80
2022/09/23 07:32:08;;;;;;;8.52;6.22;;;;;;;;;;5080739;28;20115;-81
2022/09/23 07:34:35;;;;;;;8.15;5.72;;;;;;;;;;5090133;28;20024;-82
2022/09/23 07:37:01;;;;;;;9.77;5.63;;;;;;;;;;5075707;28;20024;-81
2022/09/23 07:39:28;;;;;;;8.68;5.80;;;;;;;;;;5094975;28;20028;-81
2022/09/23 07:41:54;;;;;;;9.15;6.57;;;;;;;;;;5095671;28;20035;-81
2022/09/23 07:44:20;;;;;;;8.75;5.75;;;;;;;;;;5099162;28;20020;-81
2022/09/23 07:46:48;;;;;;;7.70;5.22;;;;;;;;;;5095585;28;20432;-82
2022/09/23 07:49:14;;;;;;;9.02;6.07;;;;;;;;;;5087952;28;20052;-80
2022/09/23 07:51:44;;;;;;;8.45;5.80;;;;;;;;;;5075624;28;20028;-81
2022/09/23 07:54:11;;;;;;;8.18;5.45;;;;;;;;;;5098058;28;20074;-82
2022/09/23 07:56:38;;;;;;;7.28;4.97;;;;;;;;;;5097621;28;20028;-82
2022/09/23 07:59:07;;;;;;;7.78;5.70;;;;;;;;;;5077153;28;20025;-82
2022/09/23 08:01:34;;;;;;;8.32;5.45;;;;;;;;;;5069770;28;20480;-81
2022/09/23 08:04:02;;;;;;;7.80;4.65;;;;;;;;;;5094818;28;20160;-82
2022/09/23 08:06:28;;;;;;;6.78;4.43;;;;;;;;;;5093788;28;21048;-82
2022/09/23 08:08:57;;;;;;;6.43;4.38;;;;;;;;;;5094010;28;20032;-82
2022/09/23 08:11:23;;;;;;;7.50;4.70;;;;;;;;;;5097921;28;20394;-82
2022/09/23 08:13:49;;;;;;;6.50;4.15;;;;;;;;;;5100713;28;20419;-82
2022/09/23 08:16:15;;;;;;;7.38;4.63;;;;;;;;;;5094424;28;20083;-82
2022/09/23 08:18:45;;;;;;;6.45;3.95;;;;;;;;;;5094372;28;20479;-82
2022/09/23 08:21:11;;;;;;;6.40;4.00;;;;;;;;;;5099563;28;20078;-81
2022/09/23 08:23:37;;;;;;;6.82;4.22;;;;;;;;;;5096679;28;20027;-82
2022/09/23 08:26:05;;;;;;;5.93;3.65;;;;;;;;;;5095107;28;20487;-79
2022/09/23 08:28:32;;;;;;;6.05;3.63;;;;;;;;;;5100055;28;20066;-79
2022/09/23 08:30:59;;;;;;;6.57;3.70;;;;;;;;;;5097124;28;20023;-80
2022/09/23 08:33:25;;;;;;;7.00;4.05;;;;;;;;;;5101100;28;20032;-79
2022/09/23 08:35:52;;;;;;;6.57;4.18;;;;;;;;;;5095889;28;20024;-80
2022/09/23 08:38:19;;;;;;;7.25;4.18;;;;;;;;;;5099773;28;20016;-79
2022/09/23 08:40:47;;;;;;;7.13;4.10;;;;;;;;;;5077679;28;20040;-79
2022/09/23 08:43:18;;;;;;;7.88;4.60;;;;;;;;;;5095088;28;20024;-79
2022/09/23 08:45:44;;;;;;;6.63;4.13;;;;;;;;;;5101262;28;20027;-79
2022/09/23 08:48:12;;;;;;;7.43;4.22;;;;;;;;;;5093531;28;20028;-79
2022/09/23 08:50:44;;;;;;;7.35;4.25;;;;;;;;;;5101445;28;20035;-80
2022/09/23 08:53:16;;;;;;;7.65;4.25;;;;;;;;;;5083492;28;20035;-79
2022/09/23 08:55:48;;;;;;;7.25;4.50;;;;;;;;;;5101196;28;20396;-79
2022/09/23 08:58:26;;;;;;;8.45;4.38;;;;;;;;;;5103385;28;20494;-79
2022/09/23 09:01:02;;;;;;;5.95;3.90;;;;;;;;;;5100826;28;20025;-79
2022/09/23 09:03:42;;;;;;;7.15;4.25;;;;;;;;;;5101465;28;20035;-78
2022/09/23 09:06:12;;;;;;;7.03;4.00;;;;;;;;;;5099995;28;20526;-79
2022/09/23 09:08:38;;;;;;;6.32;4.28;;;;;;;;;;5101420;28;20027;-79
2022/09/23 09:11:05;;;;;;;6.35;4.00;;;;;;;;;;5079829;28;20028;-79
2022/09/23 09:13:36;;;;;;;6.72;3.65;;;;;;;;;;5099718;28;20028;-78
2022/09/23 09:16:08;;;;;;;6.78;3.90;;;;;;;;;;5098635;28;20028;-78
2022/09/23 09:18:36;;;;;;;9.98;4.63;;;;;;;;;;5095173;28;20020;-79
2022/09/23 09:21:11;;;;;;;6.53;4.50;;;;;;;;;;5098970;28;20036;-79
2022/09/23 09:23:43;;;;;;;6.35;4.13;;;;;;;;;;5100684;28;20085;-79
2022/09/23 09:26:18;;;;;;;9.77;4.63;;;;;;;;;;5095767;28;20044;-79
2022/09/23 09:28:47;;;;;;;7.30;4.13;;;;;;;;;;5085455;28;20059;-79
2022/09/23 09:31:20;;;;;;;6.00;3.60;;;;;;;;;;5088415;28;20024;-78
2022/09/23 09:33:50;;;;;;;6.57;3.72;;;;;;;;;;5079413;28;20058;-78
2022/09/23 09:36:31;;;;;;;6.68;3.72;;;;;;;;;;5085885;28;20051;-78
2022/09/23 09:38:58;;;;;;;6.85;3.88;;;;;;;;;;5099894;28;20039;-79
2022/09/23 09:41:26;;;;;;;7.95;3.53;;;;;;;;;;5099837;28;20403;-79
2022/09/23 09:43:56;;;;;;;5.57;3.22;;;;;;;;;;5099569;28;20023;-78
2022/09/23 09:46:43;;;;;;;6.05;3.40;;;;;;;;;;5096439;28;20096;-79
2022/09/23 09:49:24;;;;;;;6.40;3.78;;;;;;;;;;5099629;28;20020;-78
2022/09/23 09:52:10;;;;;;;6.32;3.60;;;;;;;;;;5079273;28;20457;-79
2022/09/23 09:54:37;;;;;;;7.07;3.63;;;;;;;;;;5077840;28;20028;-78
2022/09/23 09:57:04;;;;;;;7.45;3.80;;;;;;;;;;5099765;28;20089;-78
2022/09/23 09:59:31;;;;;;;7.13;4.35;;;;;;;;;;5093045;28;20035;-79
2022/09/23 10:02:20;;;;;;;5.30;3.33;;;;;;;;;;5094093;28;20057;-79
2022/09/23 10:04:46;;;;;;;5.85;3.05;;;;;;;;;;5093950;28;20032;-77
2022/09/23 10:07:14;;;;;;;5.63;2.67;;;;;;;;;;5099443;28;20475;-79
2022/09/23 10:09:47;;;;;;;6.25;3.13;;;;;;;;;;5098969;28;20028;-79
2022/09/23 10:12:14;;;;;;;;;;;;;;;;;;5096786;28;20035;-79
2022/09/23 10:14:40;;;;;;;5.65;3.53;;;;;;;;;;5094629;28;19908;-79
2022/09/23 10:17:07;;;;;;;6.10;3.67;;;;;;;;;;5095996;28;20066;-79
2022/09/23 10:19:35;;;;;;;5.50;3.40;;;;;;;;;;5095214;28;20024;-80
2022/09/23 10:22:07;;;;;;;6.22;3.30;;;;;;;;;;5090417;28;20129;-79
2022/09/23 10:24:35;;;;;;;5.95;3.20;;;;;;;;;;5090950;28;20020;-79
2022/09/23 10:27:06;;;;;;;6.03;3.08;;;;;;;;;;5094660;28;20488;-79
2022/09/23 10:29:32;;;;;;;6.32;2.85;;;;;;;;;;5098414;28;20024;-79
2022/09/23 10:32:13;;;;;;;6.18;3.40;;;;;;;;;;5096262;28;20488;-79
2022/09/23 10:34:42;;;;;;;6.90;2.80;;;;;;;;;;5099289;28;20039;-80
2022/09/23 10:37:17;;;;;;;7.05;3.08;;;;;;;;;;5110817;28;20600;-79
2022/09/23 10:48:20;;;;;;;6.55;3.53;;;;;;;;;;5098106;28;20399;-78
2022/09/23 10:50:51;;;;;;;5.57;3.33;;;;;;;;;;5098086;28;20097;-79
2022/09/23 10:53:36;;;;;;;5.20;2.78;;;;;;;;;;5076557;28;20029;-79
2022/09/23 10:56:04;;;;;;;7.38;2.95;;;;;;;;;;5077506;28;20020;-79
2022/09/23 10:58:49;;;;;;;5.43;2.42;;;;;;;;;;5085946;28;20024;-78
2022/09/23 11:01:38;;;;;;;4.55;2.40;;;;;;;;;;5097163;28;20027;-79
2022/09/23 11:04:07;;;;;;;5.45;3.00;;;;;;;;;;5093655;28;20020;-79
2022/09/23 11:06:36;;;;;;;5.30;2.65;;;;;;;;;;5095427;28;20108;-79
2022/09/23 11:09:02;;;;;;;5.43;2.65;;;;;;;;;;5087124;28;20055;-79
2022/09/23 11:11:34;;;;;;;7.10;3.28;;;;;;;;;;5075687;28;20025;-78
2022/09/23 11:14:19;;;;;;;4.65;2.38;;;;;;;;;;5095596;28;20035;-79
2022/09/23 11:16:54;;;;;;;4.68;2.17;;;;;;;;;;5087192;28;20025;-78
2022/09/23 11:19:39;;;;;;;6.85;2.90;;;;;;;;;;5069136;28;20043;-78
2022/09/23 11:22:05;;;;;;;5.07;2.72;;;;;;;;;;5095484;28;20056;-82
2022/09/23 11:24:32;;;;;;;5.00;2.40;;;;;;;;;;5093644;28;20016;-79
2022/09/23 11:27:19;;;;;;;6.20;3.13;;;;;;;;;;5088745;28;20365;-80
2022/09/23 11:30:00;;;;;;;4.53;2.28;;;;;;;;;;5096026;28;20534;-79
2022/09/23 11:32:39;;;;;;;4.30;1.90;;;;;;;;;;5097189;28;20031;-80
2022/09/23 11:35:10;;;;;;;4.32;2.20;;;;;;;;;;5096155;28;20031;-80
2022/09/23 11:37:40;;;;;;;4.77;2.37;;;;;;;;;;5096071;28;20133;-80
2022/09/23 11:40:14;;;;;;;4.30;2.30;;;;;;;;;;5081731;28;20112;-79
2022/09/23 11:42:46;;;;;;;18.33;13.32;;;;;;;;;;5090863;28;20069;-79
2022/09/23 11:45:20;;;;;;;4.50;2.55;;;;;;;;;;5095184;28;20048;-79
2022/09/23 11:48:01;;;;;;;4.60;2.50;;;;;;;;;;5089321;28;20031;-78
2022/09/23 11:50:36;;;;;;;4.20;2.22;;;;;;;;;;5097349;28;20267;-79
2022/09/23 11:53:07;;;;;;;4.43;2.28;;;;;;;;;;5096991;28;20028;-81
2022/09/23 11:55:43;;;;;;;4.72;2.40;;;;;;;;;;5097314;28;20024;-80
2022/09/23 11:58:17;;;;;;;4.50;2.40;;;;;;;;;;5094395;28;20028;-80
2022/09/23 12:00:47;;;;;;;4.97;2.42;;;;;;;;;;5091310;28;20035;-79
2022/09/23 12:03:31;;;;;;;4.88;2.20;;;;;;;;;;5096629;28;20228;-80
2022/09/23 12:06:02;;;;;;;4.45;2.22;;;;;;;;;;5077643;28;20040;-81
2022/09/23 12:08:38;;;;;;;5.03;2.20;;;;;;;;;;5093420;28;20032;-80
2022/09/23 12:11:22;;;;;;;4.43;2.10;;;;;;;;;;5088818;28;20024;-79
2022/09/23 12:13:52;;;;;;;3.63;1.80;;;;;;;;;;5094267;28;20031;-79
2022/09/23 12:16:30;;;;;;;4.95;2.42;;;;;;;;;;5094474;28;20383;-79
2022/09/23 12:19:17;;;;;;;4.25;2.00;;;;;;;;;;5094200;28;20046;-80
2022/09/23 12:21:43;;;;;;;3.70;1.80;;;;;;;;;;5075978;28;20075;-79
2022/09/23 12:24:15;;;;;;;5.18;2.30;;;;;;;;;;5076949;28;20024;-80
2022/09/23 12:26:42;;;;;;;4.63;1.98;;;;;;;;;;5096166;28;20021;-79
2022/09/23 12:29:11;;;;;;;4.57;2.10;;;;;;;;;;5094677;28;20808;-79
2022/09/23 12:31:38;;;;;;;4.13;2.38;;;;;;;;;;5090416;28;20060;-80
2022/09/23 12:34:15;;;;;;;4.18;1.98;;;;;;;;;;5094777;28;20165;-80
2022/09/23 12:36:42;;;;;;;4.28;1.80;;;;;;;;;;5096024;28;20111;-80
2022/09/23 12:39:17;;;;;;;3.80;1.77;;;;;;;;;;5074546;28;20032;-81
2022/09/23 12:41:46;;;;;;;3.78;1.77;;;;;;;;;;5088654;28;20024;-80
2022/09/23 12:44:12;;;;;;;4.35;1.95;;;;;;;;;;5089171;28;20111;-80
2022/09/23 12:46:39;;;;;;;4.03;1.90;;;;;;;;;;5092111;28;20084;-80
2022/09/23 12:49:20;;;;;;;4.30;1.73;;;;;;;;;;5092225;28;20043;-80
2022/09/23 12:52:25;;;;;;;3.28;1.52;;;;;;;;;;5096068;28;20024;-80
2022/09/23 12:54:55;;;;;;;4.43;2.00;;;;;;;;;;4984334;28;20110;-81
2022/09/23 12:57:21;;;;;;;3.65;1.67;;;;;;;;;;4979600;28;20117;-80
2022/09/23 12:59:52;;;;;;;3.47;1.65;;;;;;;;;;4996104;28;20467;-80
2022/09/23 13:02:27;;;;;;;5.68;1.80;;;;;;;;;;4996688;28;20034;-80
2022/09/23 13:07:45;;;;;;;3.83;1.77;;;;;;;;;;4983180;28;20025;-80
2022/09/23 13:10:17;;;;;;;8.65;6.47;;;;;;;;;;4981557;28;20382;-80
2022/09/23 13:12:43;;;;;;;4.68;2.53;;;;;;;;;;4994981;28;20403;-80
2022/09/23 13:15:35;;;;;;;4.13;2.20;;;;;;;;;;4982016;28;20093;-80
2022/09/23 13:18:19;;;;;;;3.63;1.70;;;;;;;;;;4992667;28;20046;-81
2022/09/23 13:20:49;;;;;;;3.60;1.75;;;;;;;;;;4995057;28;20072;-80
2022/09/23 13:23:21;;;;;;;4.70;1.80;;;;;;;;;;4996188;28;20518;-80
2022/09/23 13:25:47;;;;;;;3.83;1.70;;;;;;;;;;5054391;28;20115;-80
2022/09/23 13:28:23;;;;;;;4.55;1.88;;;;;;;;;;5095913;28;20115;-80
2022/09/23 13:30:53;;;;;;;3.60;1.60;;;;;;;;;;5097861;28;21973;-81
2022/09/23 13:33:26;;;;;;;6.07;2.17;;;;;;;;;;5097391;28;20012;-81
2022/09/23 13:35:55;;;;;;;5.65;1.80;;;;;;;;;;5098346;28;20012;-80
2022/09/23 13:38:26;;;;;;;3.50;1.60;;;;;;;;;;5095084;28;20048;-80
2022/09/23 13:40:57;;;;;;;3.72;1.60;;;;;;;;;;5098350;28;20015;-80
2022/09/23 13:43:26;;;;;;;3.05;1.40;;;;;;;;;;5098158;28;20101;-81
2022/09/23 13:45:52;;;;;;;2.83;1.40;;;;;;;;;;5098352;28;20089;-80
2022/09/23 13:48:19;;;;;;;3.90;1.65;;;;;;;;;;5095681;28;20021;-81
2022/09/23 13:50:49;;;;;;;4.03;1.45;;;;;;;;;;5100022;28;20024;-81
2022/09/23 13:53:28;;;;;;;4.07;1.80;;;;;;;;;;5078731;28;20036;-81
2022/09/23 13:56:00;;;;;;;4.63;1.63;;;;;;;;;;5098378;28;20024;-81
2022/09/23 13:58:28;;;;;;;4.72;1.80;;;;;;;;;;5098586;28;20233;-81
2022/09/23 14:00:54;;;;;;;3.45;1.50;;;;;;;;;;5093940;28;20488;-79
2022/09/23 14:03:31;;;;;;;3.20;1.50;;;;;;;;;;5076485;28;20092;-79
2022/09/23 14:05:58;;;;;;;3.42;1.70;;;;;;;;;;5094150;28;20035;-79
2022/09/23 14:08:24;;;;;;;3.90;1.95;;;;;;;;;;5080019;28;20016;-80
2022/09/23 14:10:52;;;;;;;3.88;1.70;;;;;;;;;;5097766;28;20021;-79
2022/09/23 14:13:23;;;;;;;3.17;1.35;;;;;;;;;;5093494;28;20024;-80
2022/09/23 14:15:50;;;;;;;3.45;1.40;;;;;;;;;;5095148;28;20095;-80
2022/09/23 14:18:20;;;;;;;3.38;1.40;;;;;;;;;;5097403;28;20042;-80
2022/09/23 14:20:49;;;;;;;3.58;1.60;;;;;;;;;;5098081;28;20044;-82
2022/09/23 14:23:15;;;;;;;3.63;1.40;;;;;;;;;;5096492;28;20028;-81
2022/09/23 14:25:43;;;;;;;4.22;1.60;;;;;;;;;;5098133;28;20558;-80
2022/09/23 14:28:12;;;;;;;3.63;1.70;;;;;;;;;;5097737;28;20020;-80
2022/09/23 14:30:38;;;;;;;3.92;1.60;;;;;;;;;;5098552;28;20057;-80
2022/09/23 14:33:08;;;;;;;3.40;1.30;;;;;;;;;;5098106;28;20028;-80
2022/09/23 14:35:39;;;;;;;3.60;1.50;;;;;;;;;;5097201;28;20051;-79
2022/09/23 14:40:52;;;;;;;3.92;1.73;;;;;;;;;;5097390;28;20085;-78
2022/09/23 14:43:23;;;;;;;4.07;1.50;;;;;;;;;;5074135;28;20438;-78
2022/09/23 14:45:53;;;;;;;3.80;1.58;;;;;;;;;;5091210;28;20028;-78
2022/09/23 14:48:23;;;;;;;3.50;1.63;;;;;;;;;;5099309;28;20024;-78
2022/09/23 14:50:57;;;;;;;3.50;1.52;;;;;;;;;;5084575;28;20027;-78
2022/09/23 14:53:34;;;;;;;3.90;1.75;;;;;;;;;;5075138;28;20021;-78
2022/09/23 14:56:08;;;;;;;3.83;1.40;;;;;;;;;;5077661;28;20107;-79
2022/09/23 14:58:51;;;;;;;3.80;1.70;;;;;;;;;;5093748;28;20047;-78
2022/09/23 15:01:32;;;;;;;5.30;2.58;;;;;;;;;;5072921;28;20062;-78
2022/09/23 15:03:58;;;;;;;4.07;1.80;;;;;;;;;;5068543;28;20025;-78
2022/09/23 15:06:25;;;;;;;5.25;1.92;;;;;;;;;;5066941;28;20020;-79
2022/09/23 15:08:52;;;;;;;3.67;1.75;;;;;;;;;;5094672;28;20030;-78